Terminal Aerodrome Forecast
Issued by NWS Bismarck, ND

Home | Current Version | Previous Version | Graphics & Text | Print | Product List | Glossary On
Versions: 1 2 3 4 5 6 7 8 9 10 11 12 13 14
000
FTUS43 KBIS 301100
TAFBIS
TAF
KBIS 301132Z 3012/3112 07004KT P6SM VCFG SCT070
     FM302000 02006KT P6SM FEW060
     FM310200 04005KT P6SM SKC=

USA.gov is the U.S. government's official web portal to all federal, state and local government web resources and services.